createdAt,value
2018-06-05T00:00:11.162Z,15.50
2018-06-05T00:02:39.722Z,15.60
2018-06-05T00:05:08.293Z,15.40
2018-06-05T00:07:36.821Z,15.40
2018-06-05T00:10:05.599Z,15.40
2018-06-05T00:12:34.224Z,15.50
2018-06-05T00:17:30.931Z,15.50
2018-06-05T00:19:59.464Z,15.60
2018-06-05T00:22:28.058Z,15.70
2018-06-05T00:24:56.722Z,15.70
2018-06-05T00:29:53.863Z,15.60
2018-06-05T00:32:22.709Z,15.70
2018-06-05T00:34:51.242Z,15.70
2018-06-05T00:37:19.834Z,15.80
2018-06-05T00:42:17.033Z,15.90
2018-06-05T00:44:45.665Z,15.80
2018-06-05T00:47:14.211Z,15.70
2018-06-05T00:49:42.968Z,15.70
2018-06-05T00:52:11.521Z,15.70
2018-06-05T00:54:40.417Z,15.60
2018-06-05T00:57:08.954Z,15.70
2018-06-05T00:59:37.595Z,15.70
2018-06-05T01:02:06.127Z,15.60
2018-06-05T01:04:34.664Z,15.60
2018-06-05T01:07:03.501Z,15.80
2018-06-05T01:09:32.009Z,15.70
2018-06-05T01:12:00.486Z,15.70
2018-06-05T01:16:57.292Z,15.70
2018-06-05T01:19:25.981Z,15.50
2018-06-05T01:21:54.658Z,15.60
2018-06-05T01:24:23.196Z,15.50
2018-06-05T01:26:51.780Z,15.50
2018-06-05T01:29:20.398Z,15.50
2018-06-05T01:31:48.938Z,15.40
2018-06-05T01:34:17.482Z,15.50
2018-06-05T01:36:46.617Z,15.70
2018-06-05T01:39:15.142Z,15.60
2018-06-05T01:41:43.596Z,15.80
2018-06-05T01:44:12.080Z,15.80
2018-06-05T01:46:40.661Z,15.70
2018-06-05T01:49:09.156Z,15.70
2018-06-05T01:51:37.716Z,15.80
2018-06-05T01:54:06.289Z,15.70
2018-06-05T01:56:34.816Z,15.80
2018-06-05T01:59:03.322Z,15.80
2018-06-05T02:01:32.585Z,15.80
2018-06-05T02:04:01.187Z,15.70
2018-06-05T02:06:29.782Z,15.80
2018-06-05T02:08:58.366Z,15.80
2018-06-05T02:11:26.872Z,15.70
2018-06-05T02:13:56.453Z,15.60
2018-06-05T02:16:25.007Z,15.60
2018-06-05T02:18:53.548Z,15.60
2018-06-05T02:21:22.118Z,15.70
2018-06-05T02:26:19.117Z,15.60
2018-06-05T02:28:47.775Z,15.70
2018-06-05T02:31:16.265Z,15.70
2018-06-05T02:33:44.900Z,15.80
2018-06-05T02:36:13.362Z,15.80
2018-06-05T02:38:41.895Z,15.90
2018-06-05T02:41:10.382Z,16.00
2018-06-05T02:43:38.941Z,16.10
2018-06-05T02:46:07.464Z,15.90
2018-06-05T02:48:35.984Z,15.60
2018-06-05T02:51:04.496Z,15.80
2018-06-05T02:53:33.667Z,15.80
2018-06-05T02:56:02.173Z,15.80
2018-06-05T02:58:30.668Z,15.80
2018-06-05T03:00:59.198Z,15.70
2018-06-05T03:03:27.776Z,15.60
2018-06-05T03:05:56.328Z,15.70
2018-06-05T03:08:25.104Z,15.80
2018-06-05T03:10:53.601Z,15.60
2018-06-05T03:13:22.192Z,15.70
2018-06-05T03:15:50.644Z,15.70
2018-06-05T03:18:19.377Z,15.70
2018-06-05T03:20:47.874Z,15.70
2018-06-05T03:23:16.524Z,15.70
2018-06-05T03:25:45.049Z,15.60
2018-06-05T03:28:13.501Z,15.60
2018-06-05T03:30:42.308Z,15.60
2018-06-05T03:33:10.935Z,15.60
2018-06-05T03:35:39.378Z,15.80
2018-06-05T03:38:08.061Z,15.70
2018-06-05T03:40:36.510Z,15.60
2018-06-05T03:43:05.710Z,15.60
2018-06-05T03:45:34.649Z,15.60
2018-06-05T03:48:03.147Z,15.70
2018-06-05T03:50:31.739Z,15.70
2018-06-05T03:53:00.441Z,15.60
2018-06-05T03:55:29.019Z,15.70
2018-06-05T03:57:57.844Z,15.60
2018-06-05T04:00:26.327Z,15.60
2018-06-05T04:02:55.302Z,15.60
2018-06-05T04:05:23.896Z,15.80
2018-06-05T04:07:52.414Z,15.50
2018-06-05T04:10:20.948Z,15.60
2018-06-05T04:12:49.584Z,15.50
2018-06-05T04:15:18.247Z,15.50
2018-06-05T04:17:46.764Z,15.60
2018-06-05T04:20:15.397Z,15.50
2018-06-05T04:22:43.951Z,15.50
2018-06-05T04:27:40.837Z,15.60
2018-06-05T04:30:09.358Z,15.60
2018-06-05T04:32:37.864Z,15.70
2018-06-05T04:35:06.504Z,15.70
2018-06-05T04:37:35.210Z,15.80
2018-06-05T04:40:03.729Z,15.80
2018-06-05T04:42:32.279Z,15.80
2018-06-05T04:45:00.865Z,15.80
2018-06-05T04:47:29.619Z,15.90
2018-06-05T04:49:58.283Z,16.00
2018-06-05T04:52:26.877Z,15.80
2018-06-05T04:54:55.626Z,15.80
2018-06-05T04:57:24.424Z,15.80
2018-06-05T04:59:53.224Z,15.80
2018-06-05T05:02:21.748Z,15.80
2018-06-05T05:04:50.238Z,16.00
2018-06-05T05:07:18.782Z,15.80
2018-06-05T05:09:47.663Z,15.90
2018-06-05T05:12:16.149Z,15.70
2018-06-05T05:14:44.847Z,15.80
2018-06-05T05:17:13.504Z,15.90
2018-06-05T05:19:42.499Z,15.90
2018-06-05T05:22:11.247Z,16.00
2018-06-05T05:24:39.711Z,16.00
2018-06-05T05:27:08.350Z,15.90
2018-06-05T05:29:36.829Z,15.80
2018-06-05T05:32:05.375Z,16.00
2018-06-05T05:34:34.797Z,16.00
2018-06-05T05:37:03.304Z,16.00
2018-06-05T05:39:31.897Z,16.00
2018-06-05T05:42:00.979Z,15.90
2018-06-05T05:44:29.793Z,15.90
2018-06-05T05:46:58.640Z,15.90
2018-06-05T05:49:27.392Z,15.80
2018-06-05T05:51:56.092Z,15.80
2018-06-05T05:54:24.725Z,15.80
2018-06-05T05:56:53.395Z,15.90
2018-06-05T05:59:22.249Z,16.00
2018-06-05T06:01:50.818Z,16.00
2018-06-05T06:04:19.533Z,16.00
2018-06-05T06:06:48.149Z,16.10
2018-06-05T06:09:16.728Z,16.20
2018-06-05T06:11:46.282Z,16.30
2018-06-05T06:14:14.873Z,16.10
2018-06-05T06:16:43.709Z,16.10
2018-06-05T06:19:12.485Z,16.10
2018-06-05T06:21:41.193Z,16.00
2018-06-05T06:24:09.913Z,16.00
2018-06-05T06:26:38.759Z,16.10
2018-06-05T06:29:07.238Z,16.20
2018-06-05T06:31:36.159Z,16.00
2018-06-05T06:34:04.880Z,16.00
2018-06-05T06:36:33.740Z,16.00
2018-06-05T06:39:03.840Z,16.10
2018-06-05T06:41:32.508Z,16.00
2018-06-05T06:44:01.085Z,16.00
2018-06-05T06:46:29.868Z,16.10
2018-06-05T06:49:00.062Z,16.00
2018-06-05T06:51:28.603Z,16.10
2018-06-05T06:53:57.149Z,16.10
2018-06-05T06:56:25.669Z,16.00
2018-06-05T06:58:54.254Z,16.00
2018-06-05T07:01:22.849Z,16.00
2018-06-05T07:03:51.566Z,16.00
2018-06-05T07:06:20.203Z,15.90
2018-06-05T07:08:48.908Z,16.10
2018-06-05T07:11:17.930Z,15.80
2018-06-05T07:13:46.488Z,16.00
2018-06-05T07:16:15.255Z,16.10
2018-06-05T07:18:43.832Z,16.10
2018-06-05T07:21:12.369Z,16.10
2018-06-05T07:23:40.878Z,16.10
2018-06-05T07:26:09.466Z,16.10
2018-06-05T07:28:37.982Z,16.10
2018-06-05T07:31:06.926Z,16.00
2018-06-05T07:33:35.452Z,15.90
2018-06-05T07:36:04.345Z,16.00
2018-06-05T07:38:32.894Z,16.00
2018-06-05T07:41:02.094Z,16.00
2018-06-05T07:43:30.668Z,16.10
2018-06-05T07:45:59.510Z,16.10
2018-06-05T07:48:28.770Z,16.20
2018-06-05T07:50:57.439Z,16.00
2018-06-05T07:53:26.848Z,15.90
2018-06-05T07:55:55.465Z,15.70
2018-06-05T07:58:24.104Z,15.80
2018-06-05T08:00:52.696Z,15.90
2018-06-05T08:03:21.511Z,15.80
2018-06-05T08:05:50.732Z,15.70
2018-06-05T08:08:19.324Z,15.70
2018-06-05T08:10:48.180Z,15.60
2018-06-05T08:13:17.457Z,15.90
2018-06-05T08:15:46.288Z,15.80
2018-06-05T08:23:11.508Z,15.70
2018-06-05T08:25:40.087Z,15.70
2018-06-05T08:28:08.637Z,15.70
2018-06-05T08:30:37.408Z,15.80
2018-06-05T08:33:06.195Z,15.60
2018-06-05T08:35:34.746Z,15.80
2018-06-05T08:38:03.293Z,15.70
2018-06-05T08:40:32.131Z,15.60
2018-06-05T08:43:00.658Z,15.60
2018-06-05T08:45:29.458Z,15.70
2018-06-05T08:47:58.288Z,15.70
2018-06-05T08:50:26.768Z,15.60
2018-06-05T08:55:23.732Z,15.70
2018-06-05T08:57:52.265Z,15.70
2018-06-05T09:00:20.740Z,15.80
2018-06-05T09:02:49.389Z,15.70
2018-06-05T09:05:17.913Z,15.70
2018-06-05T09:07:46.482Z,15.60
2018-06-05T09:10:14.961Z,15.80
2018-06-05T09:12:43.591Z,15.80
2018-06-05T09:15:12.136Z,16.00
2018-06-05T09:17:40.765Z,15.90
2018-06-05T09:20:09.498Z,16.00
2018-06-05T09:22:38.504Z,16.10
2018-06-05T09:25:07.358Z,16.00
2018-06-05T09:27:36.349Z,16.00
2018-06-05T09:30:04.958Z,16.00
2018-06-05T09:32:33.757Z,16.00
2018-06-05T09:35:02.394Z,16.00
2018-06-05T09:37:31.146Z,16.00
2018-06-05T09:39:59.670Z,16.00
2018-06-05T09:42:28.258Z,16.00
2018-06-05T09:44:57.501Z,16.00
2018-06-05T09:47:26.294Z,15.60
2018-06-05T09:49:54.852Z,15.90
2018-06-05T09:52:24.263Z,15.90
2018-06-05T09:54:53.093Z,15.90
2018-06-05T09:57:21.937Z,15.70
2018-06-05T09:59:50.502Z,15.70
2018-06-05T10:02:19.054Z,15.70
2018-06-05T10:04:47.589Z,15.90
2018-06-05T10:07:16.137Z,15.80
2018-06-05T10:09:44.673Z,15.80
2018-06-05T10:12:13.273Z,15.90
2018-06-05T10:14:41.809Z,15.90
2018-06-05T10:17:10.630Z,15.80
2018-06-05T10:19:39.222Z,15.70
2018-06-05T10:22:07.732Z,15.60
2018-06-05T10:24:36.489Z,15.70
2018-06-05T10:27:05.247Z,15.80
2018-06-05T10:29:33.761Z,15.80
2018-06-05T10:32:02.337Z,15.70
2018-06-05T10:34:30.799Z,15.70
2018-06-05T10:36:59.390Z,15.80
2018-06-05T10:39:28.002Z,15.80
2018-06-05T10:41:56.739Z,16.00
2018-06-05T10:44:25.459Z,16.00
2018-06-05T10:46:54.159Z,15.90
2018-06-05T10:49:22.777Z,16.00
2018-06-05T10:51:51.564Z,16.10
2018-06-05T10:54:20.304Z,16.10
2018-06-05T10:56:49.082Z,16.20
2018-06-05T10:59:17.705Z,16.10
2018-06-05T11:01:46.488Z,16.40
2018-06-05T11:04:15.056Z,16.30
2018-06-05T11:06:43.643Z,16.00
2018-06-05T11:09:12.569Z,16.10
2018-06-05T11:11:41.484Z,16.20
2018-06-05T11:14:10.177Z,16.20
2018-06-05T11:16:38.918Z,16.20
2018-06-05T11:19:08.768Z,16.20
2018-06-05T11:21:37.780Z,16.20
2018-06-05T11:24:06.602Z,16.30
2018-06-05T11:26:35.239Z,16.40
2018-06-05T11:29:03.855Z,16.20
2018-06-05T11:31:32.415Z,16.40
2018-06-05T11:34:01.018Z,16.40
2018-06-05T11:36:29.720Z,16.50
2018-06-05T11:38:58.296Z,16.50
2018-06-05T11:41:26.945Z,16.50
2018-06-05T11:43:55.607Z,16.50
2018-06-05T11:46:24.381Z,16.50
2018-06-05T11:48:53.006Z,16.50
2018-06-05T11:51:22.076Z,16.40
2018-06-05T11:53:50.660Z,16.40
2018-06-05T11:56:19.179Z,16.40
2018-06-05T11:58:47.799Z,16.40
2018-06-05T12:01:16.375Z,16.30
2018-06-05T12:03:45.133Z,16.50
2018-06-05T12:06:13.788Z,16.20
2018-06-05T12:08:42.261Z,16.30
2018-06-05T12:11:10.827Z,16.50
2018-06-05T12:13:39.962Z,16.60
2018-06-05T12:16:08.532Z,16.70
2018-06-05T12:18:37.193Z,16.60
2018-06-05T12:21:05.957Z,16.70
2018-06-05T12:23:34.557Z,16.80
2018-06-05T12:26:03.327Z,16.70
2018-06-05T12:28:31.959Z,16.80
2018-06-05T12:31:00.611Z,16.80
2018-06-05T12:33:29.660Z,16.90
2018-06-05T12:35:58.357Z,16.80
2018-06-05T12:38:26.887Z,16.80
2018-06-05T12:40:56.084Z,16.90
2018-06-05T12:43:24.839Z,17.00
2018-06-05T12:45:53.455Z,17.00
2018-06-05T12:48:22.165Z,16.90
2018-06-05T12:50:50.918Z,17.20
2018-06-05T12:53:19.440Z,17.10
2018-06-05T12:55:48.036Z,17.10
2018-06-05T13:03:13.489Z,17.10
2018-06-05T13:05:42.215Z,17.00
2018-06-05T13:08:10.920Z,16.80
2018-06-05T13:10:39.474Z,16.90
2018-06-05T13:13:08.696Z,17.00
2018-06-05T13:15:37.296Z,17.00
2018-06-05T13:18:06.372Z,17.00
2018-06-05T13:20:34.869Z,17.10
2018-06-05T13:25:31.682Z,17.00
2018-06-05T13:28:00.674Z,17.00
2018-06-05T13:30:29.421Z,17.20
2018-06-05T13:35:27.376Z,17.00
2018-06-05T13:37:55.968Z,17.10
2018-06-05T13:42:53.049Z,17.20
2018-06-05T13:45:21.878Z,17.20
2018-06-05T13:47:50.431Z,17.10
2018-06-05T13:50:19.122Z,17.10
2018-06-05T13:52:47.645Z,17.20
2018-06-05T13:55:16.429Z,17.20
2018-06-05T13:57:45.673Z,17.10
2018-06-05T14:00:14.224Z,17.30
2018-06-05T14:02:42.753Z,17.30
2018-06-05T14:05:11.280Z,17.30
2018-06-05T14:07:39.867Z,17.10
2018-06-05T14:12:37.119Z,16.90
2018-06-05T14:15:06.158Z,17.00
2018-06-05T14:17:34.969Z,16.90
2018-06-05T14:20:03.752Z,17.00
2018-06-05T14:22:32.336Z,17.00
2018-06-05T14:25:00.882Z,17.10
2018-06-05T14:27:29.749Z,17.20
2018-06-05T14:29:58.278Z,17.40
2018-06-05T14:32:26.832Z,17.40
2018-06-05T14:34:55.469Z,17.40
2018-06-05T14:37:24.339Z,17.50
2018-06-05T14:39:52.955Z,17.50
2018-06-05T14:42:21.571Z,17.40
2018-06-05T14:44:50.322Z,17.40
2018-06-05T14:47:18.857Z,17.30
2018-06-05T14:49:47.587Z,17.30
2018-06-05T14:52:16.143Z,17.30
2018-06-05T14:54:44.994Z,17.30
2018-06-05T14:57:13.595Z,17.30
2018-06-05T14:59:42.276Z,17.30
2018-06-05T15:02:10.846Z,17.30
2018-06-05T15:04:40.071Z,17.10
2018-06-05T15:07:08.695Z,17.10
2018-06-05T15:09:37.271Z,17.20
2018-06-05T15:12:05.733Z,17.20
2018-06-05T15:14:34.427Z,17.10
2018-06-05T15:17:03.214Z,16.90
2018-06-05T15:19:31.743Z,16.80
2018-06-05T15:22:00.281Z,16.90
2018-06-05T15:24:28.881Z,17.00
2018-06-05T15:26:58.057Z,16.90
2018-06-05T15:29:26.907Z,16.80
2018-06-05T15:31:55.683Z,16.80
2018-06-05T15:34:24.240Z,16.70
2018-06-05T15:36:52.876Z,16.70
2018-06-05T15:39:21.625Z,16.60
2018-06-05T15:41:50.176Z,16.70
2018-06-05T15:46:48.184Z,16.50
2018-06-05T15:49:17.139Z,16.50
2018-06-05T15:51:45.689Z,16.50
2018-06-05T15:54:14.554Z,16.50
2018-06-05T15:56:43.128Z,16.60
2018-06-05T15:59:11.826Z,16.60
2018-06-05T16:01:40.908Z,16.50
2018-06-05T16:04:09.947Z,16.60
2018-06-05T16:06:38.870Z,16.40
2018-06-05T16:09:08.965Z,16.40
2018-06-05T16:11:37.736Z,16.50
2018-06-05T16:14:06.290Z,16.50
2018-06-05T16:16:34.878Z,16.40
2018-06-05T16:19:03.563Z,16.40
2018-06-05T16:21:32.355Z,16.50
2018-06-05T16:24:01.331Z,16.50
2018-06-05T16:26:29.891Z,16.40
2018-06-05T16:28:58.608Z,16.40
2018-06-05T16:31:27.262Z,16.50
2018-06-05T16:33:55.985Z,16.60
2018-06-05T16:36:24.550Z,16.50
2018-06-05T16:38:53.055Z,16.50
2018-06-05T16:41:22.752Z,16.30
2018-06-05T16:43:51.663Z,16.30
2018-06-05T16:46:20.394Z,16.30
2018-06-05T16:48:49.340Z,16.30
2018-06-05T16:51:18.027Z,16.30
2018-06-05T16:53:46.556Z,16.30
2018-06-05T16:56:15.354Z,16.20
2018-06-05T16:58:44.355Z,16.10
2018-06-05T17:01:12.846Z,16.00
2018-06-05T17:03:41.417Z,15.90
2018-06-05T17:06:10.089Z,15.90
2018-06-05T17:08:38.728Z,15.90
2018-06-05T17:11:08.540Z,15.90
2018-06-05T17:13:37.428Z,15.90
2018-06-05T17:16:06.115Z,15.90
2018-06-05T17:18:35.030Z,15.70
2018-06-05T17:21:03.599Z,15.80
2018-06-05T17:23:32.085Z,15.90
2018-06-05T17:26:00.822Z,15.90
2018-06-05T17:28:29.517Z,16.00
2018-06-05T17:30:58.249Z,15.70
2018-06-05T17:33:27.054Z,15.70
2018-06-05T17:35:55.659Z,15.60
2018-06-05T17:38:24.243Z,15.60
2018-06-05T17:40:53.225Z,15.50
2018-06-05T17:43:21.818Z,15.70
2018-06-05T17:45:50.403Z,15.50
2018-06-05T17:48:19.001Z,15.50
2018-06-05T17:50:47.734Z,15.50
2018-06-05T17:53:17.231Z,15.40
2018-06-05T17:55:45.845Z,15.30
2018-06-05T17:58:15.381Z,15.30
2018-06-05T18:00:43.962Z,15.30
2018-06-05T18:03:12.676Z,15.20
2018-06-05T18:05:41.947Z,15.20
2018-06-05T18:08:10.582Z,15.40
2018-06-05T18:10:39.592Z,15.20
2018-06-05T18:13:10.061Z,15.10
2018-06-05T18:15:39.635Z,15.10
2018-06-05T18:18:08.173Z,15.10
2018-06-05T18:20:37.776Z,15.00
2018-06-05T18:23:06.410Z,15.00
2018-06-05T18:25:35.055Z,14.90
2018-06-05T18:28:04.057Z,14.90
2018-06-05T18:30:32.755Z,15.00
2018-06-05T18:33:02.047Z,14.90
2018-06-05T18:35:31.087Z,14.80
2018-06-05T18:37:59.922Z,14.80
2018-06-05T18:40:28.516Z,14.80
2018-06-05T18:42:57.101Z,14.80
2018-06-05T18:45:25.777Z,14.80
2018-06-05T18:47:54.546Z,14.90
2018-06-05T18:50:23.264Z,14.90
2018-06-05T18:52:51.856Z,14.90
2018-06-05T18:55:20.569Z,14.80
2018-06-05T18:57:49.330Z,14.60
2018-06-05T19:00:19.079Z,14.60
2018-06-05T19:02:47.699Z,14.60
2018-06-05T19:05:16.249Z,14.70
2018-06-05T19:07:44.879Z,14.70
2018-06-05T19:13:44.895Z,14.50
2018-06-05T19:16:13.895Z,14.50
2018-06-05T19:18:43.480Z,14.50
2018-06-05T19:21:12.150Z,14.50
2018-06-05T19:23:40.852Z,14.40
2018-06-05T19:26:09.676Z,14.50
2018-06-05T19:28:38.263Z,14.80
2018-06-05T19:31:06.819Z,14.60
2018-06-05T19:33:35.360Z,14.40
2018-06-05T19:36:03.993Z,14.50
2018-06-05T19:38:32.672Z,14.40
2018-06-05T19:41:01.215Z,14.40
2018-06-05T19:43:29.712Z,14.30
2018-06-05T19:45:58.260Z,14.20
2018-06-05T19:48:26.748Z,14.00
2018-06-05T19:50:55.437Z,14.10
2018-06-05T19:53:24.741Z,14.30
2018-06-05T19:55:53.788Z,14.10
2018-06-05T19:58:22.421Z,14.10
2018-06-05T20:00:52.056Z,14.10
2018-06-05T20:03:20.557Z,14.00
2018-06-05T20:05:49.120Z,13.90
2018-06-05T20:08:17.736Z,14.10
2018-06-05T20:10:46.471Z,13.80
2018-06-05T20:13:15.021Z,13.80
2018-06-05T20:15:43.591Z,13.70
2018-06-05T20:18:12.140Z,14.10
2018-06-05T20:20:40.824Z,13.90
2018-06-05T20:23:09.327Z,13.90
2018-06-05T20:25:38.259Z,13.80
2018-06-05T20:28:06.820Z,13.70
2018-06-05T20:30:35.369Z,13.70
2018-06-05T20:33:04.045Z,13.80
2018-06-05T20:35:32.586Z,13.50
2018-06-05T20:38:01.105Z,13.70
2018-06-05T20:40:29.753Z,13.80
2018-06-05T20:42:58.565Z,13.60
2018-06-05T20:45:27.127Z,13.70
2018-06-05T20:47:55.868Z,13.70
2018-06-05T20:50:24.556Z,13.70
2018-06-05T20:52:53.135Z,13.70
2018-06-05T20:55:22.155Z,13.80
2018-06-05T20:57:51.255Z,13.70
2018-06-05T21:00:20.107Z,13.80
2018-06-05T21:02:48.963Z,13.80
2018-06-05T21:05:17.636Z,13.80
2018-06-05T21:07:46.197Z,13.70
2018-06-05T21:10:14.759Z,13.80
2018-06-05T21:12:43.560Z,13.70
2018-06-05T21:15:12.334Z,13.90
2018-06-05T21:17:41.127Z,13.70
2018-06-05T21:20:09.953Z,13.70
2018-06-05T21:22:38.606Z,13.60
2018-06-05T21:25:07.357Z,13.80
2018-06-05T21:27:35.916Z,13.70
2018-06-05T21:32:33.296Z,13.80
2018-06-05T21:35:01.864Z,13.60
2018-06-05T21:37:30.625Z,13.60
2018-06-05T21:39:59.226Z,13.60
2018-06-05T21:42:27.758Z,13.70
2018-06-05T21:44:56.456Z,13.60
2018-06-05T21:47:25.129Z,13.80
2018-06-05T21:49:53.737Z,13.90
2018-06-05T21:52:22.284Z,14.10
2018-06-05T21:54:51.425Z,14.00
2018-06-05T21:57:20.272Z,13.90
2018-06-05T21:59:48.815Z,13.50
2018-06-05T22:04:45.924Z,13.60
2018-06-05T22:07:14.608Z,13.50
2018-06-05T22:09:43.202Z,13.90
2018-06-05T22:12:11.672Z,14.10
2018-06-05T22:14:40.388Z,13.80
2018-06-05T22:17:09.351Z,13.80
2018-06-05T22:19:38.012Z,13.70
2018-06-05T22:22:07.011Z,13.70
2018-06-05T22:24:35.589Z,13.70
2018-06-05T22:27:04.250Z,13.60
2018-06-05T22:29:32.799Z,13.70
2018-06-05T22:32:01.456Z,14.10
2018-06-05T22:34:30.026Z,13.70
2018-06-05T22:36:59.296Z,13.80
2018-06-05T22:39:27.792Z,13.80
2018-06-05T22:41:56.486Z,13.70
2018-06-05T22:44:25.354Z,13.80
2018-06-05T22:46:54.183Z,13.60
2018-06-05T22:49:22.888Z,13.60
2018-06-05T22:51:51.361Z,13.80
2018-06-05T22:54:20.018Z,13.60
2018-06-05T22:56:48.672Z,13.70
2018-06-05T22:59:17.167Z,13.60
2018-06-05T23:01:45.778Z,13.70
2018-06-05T23:04:14.637Z,13.50
2018-06-05T23:06:43.195Z,13.80
2018-06-05T23:09:11.870Z,13.60
2018-06-05T23:11:40.564Z,13.70
2018-06-05T23:14:09.439Z,13.70
2018-06-05T23:16:38.019Z,13.70
2018-06-05T23:19:07.746Z,13.80
2018-06-05T23:21:36.325Z,13.80
2018-06-05T23:24:04.869Z,13.80
2018-06-05T23:26:34.025Z,13.70
2018-06-05T23:29:02.533Z,13.80
2018-06-05T23:31:31.065Z,13.80
2018-06-05T23:33:59.543Z,14.10
2018-06-05T23:36:28.375Z,13.90
2018-06-05T23:38:57.131Z,14.20
2018-06-05T23:41:26.533Z,13.90
2018-06-05T23:43:55.151Z,14.20
2018-06-05T23:46:23.766Z,14.00
2018-06-05T23:48:53.087Z,14.10
2018-06-05T23:51:21.762Z,14.10
2018-06-05T23:53:50.320Z,13.80
2018-06-05T23:56:19.010Z,13.90
2018-06-05T23:58:47.577Z,13.90
